Time;durP1;ratioP1;P1;durP2;ratioP2;P2;SDS_P1;SDS_P2;PMS_P1;PMS_P2;Temp;Humidity;BMP_temperature;BMP_pressure;BME280_temperature;BME280_humidity;BME280_pressure;Samples;Min_cycle;Max_cycle;Signal;HPM_P1;HPM_P2
2023/06/08 00:00:39;;;;;;;23.90;8.20;;;;;;;16.13;97.85;96691.45;109368;1254;22527;-89
2023/06/08 00:03:34;;;;;;;15.60;8.90;;;;;;;16.14;98.03;96691.80;109374;1264;22669;-90
2023/06/08 00:06:05;;;;;;;19.50;9.60;;;;;;;16.16;98.25;96690.35;109294;1269;57522;-90
2023/06/08 00:08:43;;;;;;;21.80;9.20;;;;;;;16.11;97.99;96695.64;109347;1269;22516;-89
2023/06/08 00:11:26;;;;;;;19.60;10.10;;;;;;;16.00;97.94;96693.41;109372;1269;22532;-90
2023/06/08 00:13:58;;;;;;;34.10;8.70;;;;;;;15.89;98.19;96691.80;109414;1266;22508;-90
2023/06/08 00:16:30;;;;;;;26.00;8.50;;;;;;;15.75;98.25;96691.69;109384;1269;44715;-90
2023/06/08 00:19:02;;;;;;;9.40;6.40;;;;;;;15.61;98.46;96694.48;109448;1264;22579;-90
2023/06/08 00:21:34;;;;;;;7.70;6.40;;;;;;;15.45;98.43;96691.30;109403;1263;22538;-90
2023/06/08 00:24:08;;;;;;;7.00;6.10;;;;;;;15.37;98.90;96685.40;109477;1269;24457;-90
2023/06/08 00:26:40;;;;;;;6.30;5.70;;;;;;;15.28;98.68;96683.02;109495;1263;72179;-89
2023/06/08 00:29:14;;;;;;;7.50;6.00;;;;;;;15.31;99.45;96683.04;109491;1269;22557;-90
2023/06/08 00:31:46;;;;;;;7.20;6.10;;;;;;;15.40;99.73;96685.34;109482;1267;22524;-90
2023/06/08 00:34:18;;;;;;;7.10;6.00;;;;;;;15.45;99.80;96689.36;109474;1267;22556;-90
2023/06/08 00:36:51;;;;;;;8.90;6.10;;;;;;;15.55;99.91;96688.44;107727;1269;2302981;-89
2023/06/08 00:39:23;;;;;;;8.70;6.10;;;;;;;15.61;99.80;96688.77;109502;1269;22639;-89
2023/06/08 00:41:55;;;;;;;9.10;6.80;;;;;;;15.65;99.67;96692.26;109456;1269;22518;-90
2023/06/08 00:44:27;;;;;;;7.20;6.10;;;;;;;15.70;99.65;96689.96;109437;1262;22522;-90
2023/06/08 00:46:59;;;;;;;6.60;5.50;;;;;;;15.67;98.79;96692.98;109386;1269;39502;-90
2023/06/08 00:49:34;;;;;;;7.00;6.00;;;;;;;15.60;98.78;96694.72;109452;1269;22511;-91
2023/06/08 00:52:11;;;;;;;8.00;7.20;;;;;;;15.63;99.27;96694.82;109438;1264;22547;-90
2023/06/08 00:54:48;;;;;;;9.60;8.00;;;;;;;15.69;99.33;96692.08;109367;1263;52617;-89
2023/06/08 00:57:21;;;;;;;10.60;8.20;;;;;;;15.75;99.38;96690.95;109495;1269;25402;-90
2023/06/08 00:59:53;;;;;;;8.00;6.50;;;;;;;15.80;99.23;96691.81;109500;1266;25284;-90
2023/06/08 01:02:25;;;;;;;5.50;4.50;;;;;;;15.80;98.79;96693.23;109459;1269;23330;-89
2023/06/08 01:05:03;;;;;;;7.80;5.90;;;;;;;15.65;97.39;96692.92;109397;1268;57008;-90
2023/06/08 01:07:49;;;;;;;13.10;5.50;;;;;;;15.42;97.16;96688.50;109491;1269;24790;-90
2023/06/08 01:10:28;;;;;;;8.20;5.90;;;;;;;15.27;97.27;96690.05;109471;1260;22508;-90
2023/06/08 01:13:12;;;;;;;13.20;6.40;;;;;;;15.13;97.57;96685.48;109478;1269;22511;-90
2023/06/08 01:15:49;;;;;;;9.80;6.10;;;;;;;15.06;98.16;96688.63;109461;1264;39184;-90
2023/06/08 01:18:27;;;;;;;8.30;6.20;;;;;;;15.00;98.28;96692.42;109434;1269;25377;-89
2023/06/08 01:21:11;;;;;;;8.60;5.90;;;;;;;14.91;98.53;96691.95;109477;1264;24388;-91
2023/06/08 01:23:56;;;;;;;8.20;5.90;;;;;;;14.80;98.60;96686.33;109462;1269;22512;-89
2023/06/08 01:26:31;;;;;;;8.60;5.70;;;;;;;14.74;98.98;96680.11;109137;1263;69678;-89
2023/06/08 01:29:02;;;;;;;8.50;6.50;;;;;;;14.70;99.23;96682.99;109488;1264;22517;-90
2023/06/08 01:31:37;;;;;;;8.00;6.30;;;;;;;14.64;99.49;96684.64;109469;1269;22624;-89
2023/06/08 01:34:10;;;;;;;12.70;7.40;;;;;;;14.55;99.86;96688.30;109523;1269;22511;-90
2023/06/08 01:37:00;;;;;;;15.20;7.30;;;;;;;14.48;100.00;96689.04;109443;1269;51042;-89
2023/06/08 01:39:45;;;;;;;16.90;7.90;;;;;;;14.46;100.00;96685.58;109454;1269;22531;-89
2023/06/08 01:42:25;;;;;;;16.60;7.00;;;;;;;14.43;100.00;96685.98;109468;1269;22538;-89
2023/06/08 01:45:04;;;;;;;15.00;7.30;;;;;;;14.44;100.00;96688.42;109233;1269;36093;-89
2023/06/08 01:47:43;;;;;;;15.40;7.30;;;;;;;14.53;100.00;96687.72;109471;1269;22527;-89
2023/06/08 01:50:23;;;;;;;9.10;7.50;;;;;;;14.62;100.00;96689.41;109490;1269;22681;-89
2023/06/08 01:52:58;;;;;;;15.50;8.70;;;;;;;14.72;100.00;96689.02;109475;1269;22561;-90
2023/06/08 01:55:34;;;;;;;19.30;8.10;;;;;;;14.82;100.00;96686.75;109430;1266;75634;-90
2023/06/08 01:58:10;;;;;;;9.10;7.40;;;;;;;14.91;100.00;96687.84;109511;1269;22512;-89
2023/06/08 02:00:46;;;;;;;14.60;8.30;;;;;;;14.96;100.00;96688.48;109535;1263;22512;-89
2023/06/08 02:03:18;;;;;;;14.90;8.60;;;;;;;15.03;100.00;96695.55;109484;1266;24222;-89
2023/06/08 02:05:50;;;;;;;10.60;8.50;;;;;;;15.09;100.00;96694.19;109417;1267;55089;-89
2023/06/08 02:08:23;;;;;;;11.80;8.80;;;;;;;15.13;100.00;96694.65;109451;1263;26777;-90
2023/06/08 02:10:54;;;;;;;10.30;8.70;;;;;;;15.18;100.00;96694.80;109465;1263;24129;-90
2023/06/08 02:13:26;;;;;;;17.00;10.00;;;;;;;15.25;100.00;96697.59;109535;1263;22560;-90
2023/06/08 02:15:57;;;;;;;9.70;7.60;;;;;;;15.29;100.00;96695.74;109375;1269;53979;-90
2023/06/08 02:18:30;;;;;;;10.10;7.00;;;;;;;15.27;100.00;96698.53;109397;1269;22521;-89
2023/06/08 02:21:05;;;;;;;8.70;6.90;;;;;;;15.13;100.00;96697.92;109330;1269;22528;-89
2023/06/08 02:23:37;;;;;;;10.70;6.90;;;;;;;14.96;100.00;96699.37;109295;1266;22522;-90
2023/06/08 02:26:09;;;;;;;9.10;6.60;;;;;;;14.83;100.00;96697.69;109073;1270;81721;-88
2023/06/08 02:28:41;;;;;;;7.90;6.60;;;;;;;14.78;100.00;96699.02;109382;1262;25294;-89
2023/06/08 02:31:13;;;;;;;9.30;7.00;;;;;;;14.73;100.00;96695.50;109386;1262;22507;-88
2023/06/08 02:33:44;;;;;;;8.60;6.80;;;;;;;14.71;100.00;96694.13;109335;1269;22522;-90
2023/06/08 02:36:16;;;;;;;11.00;6.60;;;;;;;14.69;100.00;96694.66;109310;1264;50281;-89
2023/06/08 02:38:47;;;;;;;13.60;7.20;;;;;;;14.69;100.00;96693.97;109407;1269;22669;-89
2023/06/08 02:41:18;;;;;;;13.50;7.70;;;;;;;14.67;100.00;96693.70;109389;1269;22548;-89
2023/06/08 02:43:54;;;;;;;17.90;7.50;;;;;;;14.65;100.00;96694.38;109297;1269;25232;-90
2023/06/08 02:46:25;;;;;;;8.80;6.80;;;;;;;14.63;100.00;96690.61;109307;1269;64846;-89
2023/06/08 02:49:01;;;;;;;9.50;6.50;;;;;;;14.62;100.00;96687.70;109424;1262;23259;-89
2023/06/08 02:51:35;;;;;;;8.00;6.70;;;;;;;14.59;100.00;96687.03;109276;1264;22511;-91
2023/06/08 02:54:09;;;;;;;9.70;6.30;;;;;;;14.61;100.00;96689.34;109218;1269;22543;-90
2023/06/08 02:56:41;;;;;;;9.30;7.30;;;;;;;14.68;100.00;96690.48;109256;1267;50338;-89
2023/06/08 02:59:13;;;;;;;12.80;7.70;;;;;;;14.78;100.00;96686.98;109383;1269;22563;-89
2023/06/08 03:01:53;;;;;;;10.00;6.50;;;;;;;14.85;100.00;96691.77;109361;1263;22527;-90
2023/06/08 03:04:24;;;;;;;;;;;;;;;14.83;100.00;96693.03;109448;1269;22554;-89
2023/06/08 03:07:01;;;;;;;7.30;5.50;;;;;;;14.78;100.00;96693.60;109258;1269;43131;-89
2023/06/08 03:09:34;;;;;;;8.20;6.60;;;;;;;14.73;100.00;96692.64;109196;1269;22511;-89
2023/06/08 03:12:09;;;;;;;7.10;6.30;;;;;;;14.70;100.00;96695.48;109383;1269;22541;-89
2023/06/08 03:14:44;;;;;;;8.20;6.00;;;;;;;14.70;100.00;96697.23;109254;1267;41640;-89
2023/06/08 03:17:19;;;;;;;8.60;6.20;;;;;;;14.70;100.00;96703.05;109319;1270;22525;-89
2023/06/08 03:19:50;;;;;;;7.60;6.40;;;;;;;14.71;100.00;96709.96;109310;1269;24258;-89
2023/06/08 03:22:34;;;;;;;7.30;6.50;;;;;;;14.74;100.00;96702.54;109293;1266;22678;-89
2023/06/08 03:25:22;;;;;;;7.30;6.60;;;;;;;14.79;100.00;96702.90;109274;1269;57794;-89
2023/06/08 03:27:54;;;;;;;8.60;6.80;;;;;;;14.88;100.00;96703.92;109302;1270;23959;-89
2023/06/08 03:30:27;;;;;;;8.10;7.10;;;;;;;14.93;100.00;96701.90;109327;1263;22674;-88
2023/06/08 03:32:58;;;;;;;7.80;6.70;;;;;;;14.96;100.00;96702.84;109326;1270;22512;-89
2023/06/08 03:35:29;;;;;;;7.60;6.60;;;;;;;14.98;100.00;96697.98;109315;1270;43297;-89
2023/06/08 03:38:01;;;;;;;7.00;6.30;;;;;;;15.00;100.00;96695.33;109285;1270;22523;-89
2023/06/08 03:40:32;;;;;;;8.00;7.00;;;;;;;15.01;100.00;96688.23;109275;1270;22559;-89
2023/06/08 03:43:05;;;;;;;7.60;6.80;;;;;;;15.03;100.00;96687.16;109242;1270;22540;-88
2023/06/08 03:45:40;;;;;;;7.60;6.80;;;;;;;15.08;100.00;96682.73;109201;1270;78096;-88
2023/06/08 03:48:12;;;;;;;7.80;7.00;;;;;;;15.16;100.00;96686.74;109301;1270;22548;-88
2023/06/08 03:50:43;;;;;;;8.60;6.50;;;;;;;15.23;100.00;96689.38;109286;1267;22519;-89
2023/06/08 03:53:15;;;;;;;7.50;6.70;;;;;;;15.30;100.00;96689.43;109278;1270;22522;-89
2023/06/08 03:55:49;;;;;;;7.80;6.70;;;;;;;15.36;100.00;96686.61;109286;1264;37289;-89
2023/06/08 03:58:24;;;;;;;7.90;6.60;;;;;;;15.42;100.00;96689.04;109325;1270;22509;-88
2023/06/08 04:00:57;;;;;;;7.90;7.00;;;;;;;15.46;100.00;96686.46;109298;1270;24305;-89
2023/06/08 04:03:31;;;;;;;8.00;6.90;;;;;;;15.50;100.00;96692.19;109342;1270;22548;-89
2023/06/08 04:06:09;;;;;;;8.80;7.00;;;;;;;15.54;100.00;96685.80;109269;1262;59554;-89
2023/06/08 04:08:46;;;;;;;8.60;7.00;;;;;;;15.55;100.00;96685.86;109288;1262;22508;-88
2023/06/08 04:11:23;;;;;;;9.50;8.30;;;;;;;15.56;100.00;96685.98;109252;1270;22518;-88
2023/06/08 04:14:00;;;;;;;9.80;8.10;;;;;;;15.58;100.00;96683.69;109272;1269;22612;-88
2023/06/08 04:16:36;;;;;;;9.20;8.20;;;;;;;15.58;100.00;96683.41;109528;1267;35743;-89
2023/06/08 04:19:10;;;;;;;12.10;9.40;;;;;;;15.60;100.00;96678.48;109462;1269;22740;-88
2023/06/08 04:21:42;;;;;;;11.40;8.70;;;;;;;15.61;100.00;96679.92;109381;1269;22525;-88
2023/06/08 04:24:14;;;;;;;12.10;9.80;;;;;;;15.62;100.00;96684.73;109463;1266;22637;-89
2023/06/08 04:26:47;;;;;;;10.70;9.10;;;;;;;15.63;100.00;96688.13;109449;1267;64261;-89
2023/06/08 04:29:19;;;;;;;12.30;9.60;;;;;;;15.63;100.00;96687.98;109493;1264;25404;-88
2023/06/08 04:31:52;;;;;;;11.60;9.80;;;;;;;15.64;100.00;96690.23;109505;1269;22540;-88
2023/06/08 04:34:23;;;;;;;13.00;10.60;;;;;;;15.66;100.00;96687.26;109494;1260;22535;-88
2023/06/08 04:36:55;;;;;;;11.80;10.10;;;;;;;15.67;100.00;96688.33;109221;1262;36025;-88
2023/06/08 04:39:31;;;;;;;11.50;9.60;;;;;;;15.70;100.00;96691.29;109501;1263;22568;-88
2023/06/08 04:42:05;;;;;;;11.90;10.30;;;;;;;15.72;100.00;96693.44;109562;1269;22552;-88
2023/06/08 04:44:38;;;;;;;12.60;10.90;;;;;;;15.74;100.00;96693.96;109498;1267;22523;-88
2023/06/08 04:47:12;;;;;;;13.70;10.60;;;;;;;15.75;100.00;96692.34;109503;1247;22552;-88
2023/06/08 04:49:47;;;;;;;12.70;10.80;;;;;;;15.78;100.00;96692.37;109450;1269;22579;-89
2023/06/08 04:52:19;;;;;;;12.70;11.00;;;;;;;15.81;100.00;96691.50;109479;1267;22557;-89
2023/06/08 04:54:52;;;;;;;12.20;10.90;;;;;;;15.84;100.00;96692.73;109479;1263;37416;-89
2023/06/08 04:57:25;;;;;;;12.60;10.80;;;;;;;15.85;100.00;96693.14;109418;1269;22546;-88
2023/06/08 05:00:00;;;;;;;13.20;11.10;;;;;;;15.87;100.00;96691.16;109434;1269;22756;-88
2023/06/08 05:02:32;;;;;;;13.30;9.70;;;;;;;15.89;100.00;96698.98;109482;1263;22556;-89
2023/06/08 05:05:08;;;;;;;13.70;11.20;;;;;;;15.88;100.00;96694.48;109243;1264;49187;-88
2023/06/08 05:07:41;;;;;;;13.60;11.30;;;;;;;15.90;100.00;96696.04;109494;1264;22529;-89
2023/06/08 05:10:13;;;;;;;12.20;10.90;;;;;;;15.92;100.00;96696.70;109525;1264;22514;-89
2023/06/08 05:12:46;;;;;;;14.70;11.10;;;;;;;15.95;100.00;96698.11;109483;1269;22575;-88
2023/06/08 05:15:18;;;;;;;15.60;11.30;;;;;;;15.98;100.00;96699.71;109414;1269;59237;-88
2023/06/08 05:17:51;;;;;;;13.70;11.00;;;;;;;16.02;100.00;96696.40;109394;1269;22564;-88
2023/06/08 05:20:29;;;;;;;14.90;10.80;;;;;;;16.05;100.00;96694.77;109191;1268;25397;-88
2023/06/08 05:23:01;;;;;;;12.40;11.10;;;;;;;16.08;100.00;96697.37;109357;1265;22559;-88
2023/06/08 05:25:36;;;;;;;13.00;10.50;;;;;;;16.11;100.00;96698.02;109364;1269;73570;-88
2023/06/08 05:28:10;;;;;;;12.70;9.90;;;;;;;16.08;100.00;96697.91;109379;1269;22547;-88
2023/06/08 05:30:43;;;;;;;12.80;10.60;;;;;;;16.06;100.00;96696.36;109255;1269;22639;-88
2023/06/08 05:33:15;;;;;;;11.90;10.50;;;;;;;16.09;100.00;96692.55;109349;1269;22576;-88
2023/06/08 05:35:50;;;;;;;11.20;10.10;;;;;;;16.22;100.00;96692.70;109276;1263;111007;-87
2023/06/08 05:38:21;;;;;;;12.10;9.60;;;;;;;16.35;100.00;96693.80;109429;1269;22511;-88
2023/06/08 05:40:53;;;;;;;11.40;10.30;;;;;;;16.58;100.00;96693.38;109402;1263;22522;-88
2023/06/08 05:43:24;;;;;;;11.40;10.10;;;;;;;17.25;100.00;96690.35;109369;1263;22551;-88
2023/06/08 05:45:57;;;;;;;9.80;8.80;;;;;;;18.77;100.00;96689.34;109143;1257;53865;-88
2023/06/08 05:48:31;;;;;;;10.50;7.60;;;;;;;20.62;100.00;96690.79;109378;1269;22635;-89
2023/06/08 05:51:03;;;;;;;10.30;8.00;;;;;;;22.58;100.00;96688.06;109395;1269;22546;-88
2023/06/08 05:53:38;;;;;;;8.50;7.40;;;;;;;24.41;99.19;96686.76;109409;1269;22514;-89
2023/06/08 05:56:09;;;;;;;8.40;6.70;;;;;;;26.14;96.05;96686.33;109384;1262;57977;-88
2023/06/08 05:58:42;;;;;;;7.20;6.20;;;;;;;27.86;89.61;96684.02;109445;1269;22583;-89
2023/06/08 06:01:20;;;;;;;7.60;6.50;;;;;;;28.98;83.60;96682.13;109407;1263;22512;-88
2023/06/08 06:03:52;;;;;;;7.50;6.70;;;;;;;30.05;79.17;96685.40;109410;1269;22807;-87
2023/06/08 06:06:24;;;;;;;6.30;5.70;;;;;;;30.53;74.91;96686.84;109245;1269;49013;-87
2023/06/08 06:09:01;;;;;;;7.00;5.50;;;;;;;29.13;66.72;96687.21;109423;1269;22615;-87
2023/06/08 06:11:33;;;;;;;7.20;5.70;;;;;;;26.70;65.54;96690.47;109159;1270;22521;-87
2023/06/08 06:14:06;;;;;;;6.20;5.20;;;;;;;24.89;65.87;96693.07;109439;1269;22593;-87
2023/06/08 06:16:40;;;;;;;6.60;5.70;;;;;;;23.64;67.00;96693.36;109366;1267;56117;-87
2023/06/08 06:19:24;;;;;;;6.20;5.50;;;;;;;22.71;68.28;96692.89;109417;1269;22521;-87
2023/06/08 06:22:08;;;;;;;6.30;5.70;;;;;;;21.99;69.51;96695.04;109319;1267;22562;-87
2023/06/08 06:24:40;;;;;;;7.20;6.50;;;;;;;21.42;70.33;96696.54;109356;1269;22531;-86
2023/06/08 06:27:12;;;;;;;8.30;6.60;;;;;;;20.92;70.93;96694.48;109382;1269;22535;-87
2023/06/08 06:29:57;;;;;;;6.30;5.60;;;;;;;20.56;71.85;96691.52;109377;1263;22523;-87
2023/06/08 06:32:31;;;;;;;8.10;6.40;;;;;;;20.31;72.71;96694.36;109374;1269;22541;-87
2023/06/08 06:35:06;;;;;;;6.60;5.30;;;;;;;20.16;73.65;96692.91;109378;1262;58086;-87
2023/06/08 06:37:43;;;;;;;6.10;5.30;;;;;;;20.04;73.92;96693.61;109405;1264;22517;-87
2023/06/08 06:40:21;;;;;;;6.90;5.80;;;;;;;19.95;74.20;96691.77;109375;1269;22507;-87
2023/06/08 06:42:53;;;;;;;8.20;6.80;;;;;;;19.87;74.69;96692.98;109398;1269;22510;-87
2023/06/08 06:45:27;;;;;;;7.20;6.20;;;;;;;19.80;75.01;96687.09;109403;1259;57091;-87
2023/06/08 06:48:00;;;;;;;7.90;6.40;;;;;;;19.76;75.51;96687.73;109377;1269;22568;-87
2023/06/08 06:50:37;;;;;;;7.50;6.80;;;;;;;19.67;75.85;96686.04;109421;1269;22506;-87
2023/06/08 06:53:09;;;;;;;7.90;7.00;;;;;;;19.56;76.28;96688.14;109368;1269;22511;-87
2023/06/08 06:55:49;;;;;;;7.40;6.70;;;;;;;19.46;76.36;96686.55;109291;1267;99872;-87
2023/06/08 06:58:22;;;;;;;;;;;;;;;19.35;76.93;96692.49;109433;1267;25222;-87
2023/06/08 07:00:55;;;;;;;9.40;7.40;;;;;;;19.35;77.99;96691.11;109431;1262;23897;-88
2023/06/08 07:03:28;;;;;;;8.50;7.60;;;;;;;19.37;78.67;96692.39;109420;1263;22529;-87
2023/06/08 07:06:02;;;;;;;8.90;7.90;;;;;;;19.50;80.24;96691.77;109375;1265;52859;-87
2023/06/08 07:08:35;;;;;;;8.70;7.80;;;;;;;19.61;79.38;96688.30;109428;1269;22524;-87
2023/06/08 07:11:11;;;;;;;8.90;8.00;;;;;;;19.49;78.92;96685.42;109437;1269;25230;-88
2023/06/08 07:13:47;;;;;;;11.00;8.90;;;;;;;19.37;79.26;96686.70;109429;1269;22518;-87
2023/06/08 07:16:22;;;;;;;9.80;8.80;;;;;;;19.31;79.80;96689.20;109246;1269;80405;-87
2023/06/08 07:18:57;;;;;;;10.00;9.00;;;;;;;19.28;80.06;96690.40;109373;1262;24243;-87
2023/06/08 07:21:38;;;;;;;10.90;9.00;;;;;;;19.26;80.41;96688.40;109332;1267;25428;-88
2023/06/08 07:24:13;;;;;;;9.90;8.80;;;;;;;19.53;81.99;96687.10;109381;1262;22547;-87
2023/06/08 07:26:45;;;;;;;10.80;9.20;;;;;;;19.81;81.32;96692.03;109270;1263;118523;-86
2023/06/08 07:29:17;;;;;;;10.70;9.60;;;;;;;19.87;81.37;96692.52;109359;1269;25229;-87
2023/06/08 07:31:59;;;;;;;10.20;9.20;;;;;;;20.57;83.44;96693.14;109325;1270;22520;-87
2023/06/08 07:37:19;;;;;;;9.90;8.90;;;;;;;21.26;80.03;96692.88;109262;1270;26420;-88
2023/06/08 07:39:52;;;;;;;12.80;9.70;;;;;;;21.24;80.22;96696.52;109330;1270;22523;-87
2023/06/08 07:42:23;;;;;;;10.90;9.30;;;;;;;21.75;80.71;96694.28;109275;1256;22525;-87
2023/06/08 07:44:58;;;;;;;9.10;8.20;;;;;;;22.31;80.10;96692.02;109277;1267;92366;-88
2023/06/08 07:47:34;;;;;;;10.40;9.10;;;;;;;22.95;79.63;96691.92;109275;1247;22585;-88
2023/06/08 07:50:11;;;;;;;9.10;8.20;;;;;;;23.09;77.85;96694.14;109289;1263;22529;-87
2023/06/08 07:52:49;;;;;;;11.40;10.20;;;;;;;22.99;76.14;96692.00;109339;1263;22511;-87
2023/06/08 07:55:21;;;;;;;12.30;9.20;;;;;;;22.57;74.98;96693.05;109274;1270;43079;-87
2023/06/08 07:57:53;;;;;;;10.00;8.60;;;;;;;22.17;74.72;96697.38;109348;1270;25211;-88
2023/06/08 08:00:26;;;;;;;9.00;8.10;;;;;;;21.84;74.81;96696.59;109354;1262;22551;-87
2023/06/08 08:03:03;;;;;;;10.40;8.20;;;;;;;21.54;74.69;96697.94;109320;1263;22507;-87
2023/06/08 08:05:37;;;;;;;10.30;9.20;;;;;;;21.33;75.10;96695.91;109272;1264;63909;-87
2023/06/08 08:08:09;;;;;;;11.90;9.20;;;;;;;21.09;75.30;96697.49;109288;1270;22527;-87
2023/06/08 08:10:50;;;;;;;10.10;8.90;;;;;;;20.88;75.26;96693.35;109354;1264;22518;-88
2023/06/08 08:13:27;;;;;;;10.40;9.00;;;;;;;20.70;75.59;96697.07;109323;1263;22518;-87
2023/06/08 08:16:02;;;;;;;11.10;9.30;;;;;;;20.60;76.34;96696.73;109287;1269;99361;-87
2023/06/08 08:18:35;;;;;;;10.90;9.80;;;;;;;20.65;76.92;96698.88;109242;1259;235621;-87
2023/06/08 08:21:11;;;;;;;11.30;9.50;;;;;;;20.74;77.30;96698.36;109359;1264;22546;-87
2023/06/08 08:23:51;;;;;;;11.20;9.50;;;;;;;20.74;77.24;96699.83;109444;1269;22506;-87
2023/06/08 08:26:25;;;;;;;10.90;9.80;;;;;;;20.71;77.11;96700.22;109331;1263;59619;-87
2023/06/08 08:29:00;;;;;;;10.70;9.60;;;;;;;20.74;77.20;96700.97;109374;1269;25527;-88
2023/06/08 08:31:40;;;;;;;11.10;9.70;;;;;;;20.75;77.24;96697.39;109397;1269;22573;-88
2023/06/08 08:34:17;;;;;;;11.90;10.70;;;;;;;20.85;77.66;96697.90;109421;1269;24321;-88
2023/06/08 08:36:52;;;;;;;11.90;10.10;;;;;;;20.96;77.60;96693.05;109052;1257;86379;-87
2023/06/08 08:39:25;;;;;;;11.90;10.60;;;;;;;20.99;77.53;96697.23;109377;1269;22505;-87
2023/06/08 08:42:03;;;;;;;12.00;10.70;;;;;;;21.02;77.84;96693.69;109185;1270;23192;-86
2023/06/08 08:44:44;;;;;;;11.90;10.70;;;;;;;21.08;77.69;96693.69;109401;1267;22511;-86
2023/06/08 08:47:28;;;;;;;13.90;11.90;;;;;;;21.17;77.30;96693.39;109303;1269;83814;-89
2023/06/08 08:50:16;;;;;;;11.00;9.60;;;;;;;21.23;77.08;96694.32;109367;1261;22528;-87
2023/06/08 08:52:57;;;;;;;11.80;10.10;;;;;;;21.35;77.03;96693.80;109348;1263;24308;-87
2023/06/08 08:55:33;;;;;;;12.20;10.90;;;;;;;21.39;76.62;96694.73;107714;1258;1923918;-87
2023/06/08 08:58:11;;;;;;;12.50;11.20;;;;;;;21.37;76.30;96695.08;109398;1262;22525;-88
2023/06/08 09:00:50;;;;;;;12.70;11.00;;;;;;;21.35;76.38;96700.13;109427;1263;25405;-87
2023/06/08 09:03:27;;;;;;;12.90;11.50;;;;;;;21.35;76.61;96697.75;109431;1266;22552;-88
2023/06/08 09:06:07;;;;;;;14.40;13.00;;;;;;;21.43;76.79;96701.19;109286;1269;108236;-87
2023/06/08 09:08:46;;;;;;;13.90;12.50;;;;;;;21.30;75.66;96705.62;109397;1265;22692;-88
2023/06/08 09:11:25;;;;;;;14.00;12.60;;;;;;;21.10;75.87;96703.20;109344;1269;22563;-87
2023/06/08 09:14:15;;;;;;;18.60;14.70;;;;;;;20.93;76.02;96708.06;109412;1269;23415;-88
2023/06/08 09:16:53;;;;;;;15.80;14.10;;;;;;;20.78;76.48;96709.46;109287;1269;115148;-88
2023/06/08 09:19:52;;;;;;;15.80;14.20;;;;;;;20.59;76.28;96710.25;109311;1269;22674;-88
2023/06/08 09:22:33;;;;;;;15.60;14.00;;;;;;;20.37;75.90;96705.24;109322;1269;25313;-88
2023/06/08 09:25:11;;;;;;;15.10;13.50;;;;;;;20.18;76.37;96705.75;109410;1266;45299;-87
2023/06/08 09:27:53;;;;;;;18.10;16.20;;;;;;;20.09;77.12;96704.46;109425;1251;24232;-88
2023/06/08 09:30:28;;;;;;;18.30;16.30;;;;;;;20.08;77.78;96704.66;109423;1262;22693;-88
2023/06/08 09:33:04;;;;;;;18.00;16.20;;;;;;;20.07;78.12;96709.91;109317;1269;22547;-87
2023/06/08 09:35:37;;;;;;;19.20;17.10;;;;;;;20.12;78.61;96708.70;109288;1264;100379;-86
2023/06/08 09:38:20;;;;;;;17.60;15.80;;;;;;;20.22;79.17;96706.48;109451;1262;22529;-86
2023/06/08 09:40:52;;;;;;;18.70;16.70;;;;;;;20.32;79.33;96701.00;109375;1269;22556;-87
2023/06/08 09:43:34;;;;;;;20.40;18.40;;;;;;;20.32;78.92;96702.39;109180;1256;24285;-88
2023/06/08 09:46:06;;;;;;;20.70;18.00;;;;;;;20.26;78.85;96704.13;109375;1269;53866;-87
2023/06/08 09:48:54;;;;;;;19.70;17.70;;;;;;;20.24;78.92;96701.77;109394;1266;25310;-88
2023/06/08 09:51:38;;;;;;;21.10;19.00;;;;;;;20.31;79.42;96696.73;109365;1269;22606;-88
2023/06/08 09:54:15;;;;;;;20.60;18.40;;;;;;;20.43;79.35;96697.37;109430;1269;22508;-88
2023/06/08 09:56:58;;;;;;;20.50;18.50;;;;;;;20.57;79.76;96694.63;109341;1265;83176;-87
2023/06/08 09:59:38;;;;;;;20.40;18.40;;;;;;;20.76;80.03;96694.63;109398;1263;25433;-87
2023/06/08 10:02:22;;;;;;;19.80;17.90;;;;;;;20.89;79.44;96689.23;109445;1267;22573;-88
2023/06/08 10:05:12;;;;;;;19.60;17.60;;;;;;;20.93;78.68;96687.95;109415;1266;23960;-87
2023/06/08 10:07:53;;;;;;;19.90;17.80;;;;;;;20.83;78.00;96692.07;109410;1269;22534;-88
2023/06/08 10:10:35;;;;;;;18.80;17.00;;;;;;;20.67;77.61;96691.23;109099;1269;22514;-88
2023/06/08 10:13:16;;;;;;;18.80;16.80;;;;;;;20.48;77.57;96689.98;109431;1263;22983;-88
2023/06/08 10:15:55;;;;;;;19.40;17.50;;;;;;;20.33;77.61;96687.96;109446;1268;39790;-88
2023/06/08 10:18:30;;;;;;;19.10;17.20;;;;;;;20.23;77.75;96689.96;109475;1269;24142;-88
2023/06/08 10:21:16;;;;;;;18.30;16.50;;;;;;;20.15;77.67;96686.50;109472;1269;22565;-88
2023/06/08 10:23:48;;;;;;;19.10;17.20;;;;;;;20.09;77.91;96688.30;109519;1263;22511;-87
2023/06/08 10:26:20;;;;;;;18.00;16.30;;;;;;;20.12;77.90;96684.57;109383;1263;56174;-86
2023/06/08 10:29:19;;;;;;;17.90;16.10;;;;;;;20.20;78.97;96682.35;109444;1269;22621;-88
2023/06/08 10:31:57;;;;;;;17.70;16.00;;;;;;;20.43;79.36;96682.60;109406;1263;23998;-88
2023/06/08 10:34:50;;;;;;;18.30;16.50;;;;;;;20.50;78.95;96679.72;109478;1267;22515;-88
2023/06/08 10:37:31;;;;;;;17.90;16.10;;;;;;;20.55;78.72;96677.80;108129;1266;1749356;-88
2023/06/08 10:40:12;;;;;;;18.90;16.90;;;;;;;20.61;78.96;96673.03;109526;1266;22548;-88
2023/06/08 10:43:08;;;;;;;17.10;15.50;;;;;;;20.69;78.72;96674.59;109485;1267;22551;-87
2023/06/08 10:45:48;;;;;;;16.30;14.80;;;;;;;20.79;78.92;96671.02;109332;1266;134301;-87
2023/06/08 10:48:30;;;;;;;16.10;14.30;;;;;;;20.76;77.72;96674.02;109282;1269;22522;-87
2023/06/08 10:51:12;;;;;;;16.10;14.50;;;;;;;20.64;77.80;96671.60;109186;1263;24123;-87
2023/06/08 10:54:01;;;;;;;15.70;14.10;;;;;;;20.67;77.60;96670.21;109494;1265;22511;-88
2023/06/08 10:56:47;;;;;;;15.50;13.90;;;;;;;20.66;77.73;96666.95;109393;1265;76707;-88
2023/06/08 10:59:29;;;;;;;15.60;14.10;;;;;;;20.70;77.80;96666.55;109486;1267;24228;-88
2023/06/08 11:02:05;;;;;;;14.80;12.40;;;;;;;20.73;78.01;96667.94;109490;1264;22501;-88
2023/06/08 11:04:41;;;;;;;15.80;14.30;;;;;;;20.77;77.57;96665.25;109492;1269;22574;-88
2023/06/08 11:07:18;;;;;;;14.00;12.70;;;;;;;20.69;77.14;96664.05;109434;1266;105720;-88
2023/06/08 11:10:05;;;;;;;13.60;12.30;;;;;;;20.60;76.84;96659.25;109482;1263;25559;-88
2023/06/08 11:12:43;;;;;;;13.90;12.60;;;;;;;20.47;76.38;96659.46;109443;1266;22518;-87
2023/06/08 11:15:42;;;;;;;14.70;13.10;;;;;;;20.42;77.09;96660.32;109397;1269;44078;-88
2023/06/08 11:18:25;;;;;;;14.40;13.10;;;;;;;20.39;76.59;96657.20;109431;1263;22519;-87
2023/06/08 11:21:02;;;;;;;14.30;12.80;;;;;;;20.32;76.74;96649.30;109368;1263;22536;-87
2023/06/08 11:23:40;;;;;;;13.80;12.40;;;;;;;20.27;76.87;96647.94;109415;1266;25387;-88
2023/06/08 11:26:22;;;;;;;14.10;12.60;;;;;;;20.26;76.85;96642.91;107898;1264;2049297;-87
2023/06/08 11:29:09;;;;;;;14.00;12.60;;;;;;;20.25;76.59;96642.56;109475;1269;22511;-88
2023/06/08 11:31:44;;;;;;;13.40;12.10;;;;;;;20.26;76.71;96640.82;109480;1269;22508;-88
2023/06/08 11:34:42;;;;;;;14.10;12.80;;;;;;;20.25;76.76;96640.24;109522;1266;22460;-87
2023/06/08 11:37:30;;;;;;;14.00;12.60;;;;;;;20.24;76.42;96636.45;107720;1264;2019458;-87
2023/06/08 11:40:09;;;;;;;13.20;12.00;;;;;;;20.19;76.37;96632.70;109471;1263;24340;-87
2023/06/08 11:43:11;;;;;;;14.60;13.10;;;;;;;20.18;76.47;96629.59;109477;1269;23410;-87
2023/06/08 11:46:05;;;;;;;14.40;12.60;;;;;;;20.22;77.17;96626.39;109330;1269;108684;-88
2023/06/08 11:48:53;;;;;;;14.30;12.80;;;;;;;20.21;76.52;96632.96;109431;1269;25405;-87
2023/06/08 11:51:42;;;;;;;14.50;13.00;;;;;;;20.12;76.24;96626.82;109258;1270;22548;-89
2023/06/08 11:54:18;;;;;;;14.10;12.70;;;;;;;20.11;76.52;96627.61;109434;1269;22576;-87
2023/06/08 11:57:12;;;;;;;13.70;12.30;;;;;;;20.12;76.75;96627.82;107995;1268;1670321;-88
2023/06/08 11:59:53;;;;;;;14.40;12.90;;;;;;;20.16;76.86;96624.86;109428;1269;22515;-88